sensor_id;sensor_type;location;lat;lon;timestamp;temperature;humidity
44447;DHT22;30152;52.066;5.358;2023-03-01T08:01:04;-0.80;99.90
44447;DHT22;30152;52.066;5.358;2023-03-01T08:03:30;-0.80;99.90
44447;DHT22;30152;52.066;5.358;2023-03-01T08:22:58;1.90;99.90
44447;DHT22;30152;52.066;5.358;2023-03-01T08:25:23;2.50;99.90
44447;DHT22;30152;52.066;5.358;2023-03-01T08:27:49;2.10;99.90
44447;DHT22;30152;52.066;5.358;2023-03-01T08:35:07;1.20;99.90
44447;DHT22;30152;52.066;5.358;2023-03-01T08:37:32;1.80;99.90
44447;DHT22;30152;52.066;5.358;2023-03-01T08:39:59;1.80;99.90
44447;DHT22;30152;52.066;5.358;2023-03-01T08:57:02;2.20;99.90
44447;DHT22;30152;52.066;5.358;2023-03-01T08:59:28;2.40;99.90
44447;DHT22;30152;52.066;5.358;2023-03-01T09:04:21;2.60;99.90
44447;DHT22;30152;52.066;5.358;2023-03-01T09:06:46;2.70;99.90
44447;DHT22;30152;52.066;5.358;2023-03-01T09:09:15;2.80;99.90
44447;DHT22;30152;52.066;5.358;2023-03-01T09:19:02;3.30;99.90
44447;DHT22;30152;52.066;5.358;2023-03-01T09:21:28;3.20;99.90
44447;DHT22;30152;52.066;5.358;2023-03-01T09:23:56;3.30;99.90
44447;DHT22;30152;52.066;5.358;2023-03-01T09:26:22;3.40;99.90
44447;DHT22;30152;52.066;5.358;2023-03-01T09:28:50;3.50;99.90
44447;DHT22;30152;52.066;5.358;2023-03-01T09:31:18;3.10;99.90
44447;DHT22;30152;52.066;5.358;2023-03-01T09:33:46;3.80;99.40
44447;DHT22;30152;52.066;5.358;2023-03-01T09:36:16;4.00;99.90
44447;DHT22;30152;52.066;5.358;2023-03-01T09:38:42;3.90;99.90
44447;DHT22;30152;52.066;5.358;2023-03-01T09:46:45;4.30;99.10
44447;DHT22;30152;52.066;5.358;2023-03-01T10:18:15;5.40;91.50
44447;DHT22;30152;52.066;5.358;2023-03-01T10:22:47;6.30;93.60
44447;DHT22;30152;52.066;5.358;2023-03-01T10:28:05;5.40;91.00
44447;DHT22;30152;52.066;5.358;2023-03-01T10:30:39;5.30;91.50
44447;DHT22;30152;52.066;5.358;2023-03-01T10:33:23;5.40;93.30
44447;DHT22;30152;52.066;5.358;2023-03-01T10:38:16;5.50;90.10
44447;DHT22;30152;52.066;5.358;2023-03-01T10:41:04;5.70;91.10
44447;DHT22;30152;52.066;5.358;2023-03-01T10:43:47;5.70;89.50
44447;DHT22;30152;52.066;5.358;2023-03-01T10:46:33;6.00;88.10
44447;DHT22;30152;52.066;5.358;2023-03-01T10:49:18;6.10;86.20
44447;DHT22;30152;52.066;5.358;2023-03-01T10:59:27;6.70;86.40
44447;DHT22;30152;52.066;5.358;2023-03-01T11:02:22;6.70;80.40
44447;DHT22;30152;52.066;5.358;2023-03-01T11:05:15;6.70;78.90
44447;DHT22;30152;52.066;5.358;2023-03-01T11:07:53;6.70;82.90
44447;DHT22;30152;52.066;5.358;2023-03-01T11:12:51;6.90;77.70
44447;DHT22;30152;52.066;5.358;2023-03-01T11:15:27;6.80;80.70
44447;DHT22;30152;52.066;5.358;2023-03-01T11:17:54;6.80;79.70
44447;DHT22;30152;52.066;5.358;2023-03-01T11:20:32;7.10;75.30
44447;DHT22;30152;52.066;5.358;2023-03-01T11:23:05;7.10;80.10
44447;DHT22;30152;52.066;5.358;2023-03-01T11:25:37;7.40;75.60
44447;DHT22;30152;52.066;5.358;2023-03-01T11:28:05;7.60;78.30
44447;DHT22;30152;52.066;5.358;2023-03-01T11:30:39;7.20;73.10
44447;DHT22;30152;52.066;5.358;2023-03-01T11:33:35;7.30;79.30
44447;DHT22;30152;52.066;5.358;2023-03-01T11:36:32;7.50;75.30
44447;DHT22;30152;52.066;5.358;2023-03-01T11:39:12;7.30;71.40
44447;DHT22;30152;52.066;5.358;2023-03-01T11:41:41;7.70;74.80
44447;DHT22;30152;52.066;5.358;2023-03-01T11:44:28;7.80;71.90
44447;DHT22;30152;52.066;5.358;2023-03-01T11:47:11;7.80;74.50
44447;DHT22;30152;52.066;5.358;2023-03-01T12:49:53;8.80;65.00
44447;DHT22;30152;52.066;5.358;2023-03-01T12:52:38;8.60;67.60
44447;DHT22;30152;52.066;5.358;2023-03-01T15:03:43;10.00;60.50
44447;DHT22;30152;52.066;5.358;2023-03-01T15:58:49;7.70;68.60
44447;DHT22;30152;52.066;5.358;2023-03-01T16:01:16;8.90;69.40
44447;DHT22;30152;52.066;5.358;2023-03-01T16:03:42;8.10;68.80
44447;DHT22;30152;52.066;5.358;2023-03-01T16:06:09;8.10;69.20
44447;DHT22;30152;52.066;5.358;2023-03-01T16:08:36;7.80;69.80
44447;DHT22;30152;52.066;5.358;2023-03-01T16:11:03;8.60;70.10
44447;DHT22;30152;52.066;5.358;2023-03-01T16:13:30;7.50;69.30
44447;DHT22;30152;52.066;5.358;2023-03-01T16:15:57;7.60;69.50
44447;DHT22;30152;52.066;5.358;2023-03-01T16:20:48;7.50;68.20
44447;DHT22;30152;52.066;5.358;2023-03-01T16:30:37;7.40;72.60
44447;DHT22;30152;52.066;5.358;2023-03-01T16:37:59;7.40;73.60
44447;DHT22;30152;52.066;5.358;2023-03-01T16:40:27;7.30;74.10
44447;DHT22;30152;52.066;5.358;2023-03-01T16:42:54;6.80;73.50
44447;DHT22;30152;52.066;5.358;2023-03-01T16:50:12;6.50;72.80
44447;DHT22;30152;52.066;5.358;2023-03-01T16:52:38;6.90;73.20
44447;DHT22;30152;52.066;5.358;2023-03-01T16:55:06;6.50;71.60
44447;DHT22;30152;52.066;5.358;2023-03-01T16:57:34;6.60;69.00
44447;DHT22;30152;52.066;5.358;2023-03-01T17:00:00;6.30;74.70
44447;DHT22;30152;52.066;5.358;2023-03-01T17:04:55;6.40;70.80
44447;DHT22;30152;52.066;5.358;2023-03-01T17:07:21;6.20;71.20
44447;DHT22;30152;52.066;5.358;2023-03-01T17:12:14;6.30;77.60
44447;DHT22;30152;52.066;5.358;2023-03-01T17:14:41;6.40;75.50
44447;DHT22;30152;52.066;5.358;2023-03-01T17:17:10;6.00;77.80
44447;DHT22;30152;52.066;5.358;2023-03-01T17:19:37;6.60;75.60
44447;DHT22;30152;52.066;5.358;2023-03-01T17:22:09;5.90;74.30
44447;DHT22;30152;52.066;5.358;2023-03-01T17:24:37;5.70;74.60
44447;DHT22;30152;52.066;5.358;2023-03-01T17:27:03;5.70;77.40
44447;DHT22;30152;52.066;5.358;2023-03-01T17:34:24;5.70;76.40
44447;DHT22;30152;52.066;5.358;2023-03-01T17:36:50;5.50;80.60
44447;DHT22;30152;52.066;5.358;2023-03-01T17:39:19;5.50;76.70
44447;DHT22;30152;52.066;5.358;2023-03-01T17:41:50;5.10;81.90
44447;DHT22;30152;52.066;5.358;2023-03-01T17:44:16;5.00;80.30
44447;DHT22;30152;52.066;5.358;2023-03-01T17:46:41;4.80;82.30
44447;DHT22;30152;52.066;5.358;2023-03-01T17:53:59;5.30;79.80
44447;DHT22;30152;52.066;5.358;2023-03-01T17:56:24;5.00;83.10
44447;DHT22;30152;52.066;5.358;2023-03-01T17:58:51;5.10;84.20
44447;DHT22;30152;52.066;5.358;2023-03-01T18:01:18;4.80;78.70
44447;DHT22;30152;52.066;5.358;2023-03-01T18:11:02;4.30;86.90
44447;DHT22;30152;52.066;5.358;2023-03-01T18:18:25;4.10;89.10
44447;DHT22;30152;52.066;5.358;2023-03-01T18:20:55;3.40;86.60
44447;DHT22;30152;52.066;5.358;2023-03-01T18:28:13;3.50;91.70
44447;DHT22;30152;52.066;5.358;2023-03-01T18:33:04;2.80;91.40
44447;DHT22;30152;52.066;5.358;2023-03-01T18:37:56;2.90;91.80
44447;DHT22;30152;52.066;5.358;2023-03-01T21:50:54;1.80;95.70
44447;DHT22;30152;52.066;5.358;2023-03-01T21:55:47;1.60;96.00
44447;DHT22;30152;52.066;5.358;2023-03-01T21:58:12;1.90;97.50
44447;DHT22;30152;52.066;5.358;2023-03-01T22:00:38;1.40;98.90
44447;DHT22;30152;52.066;5.358;2023-03-01T22:05:30;1.80;98.70
44447;DHT22;30152;52.066;5.358;2023-03-01T22:10:21;1.80;99.20
44447;DHT22;30152;52.066;5.358;2023-03-01T22:12:56;1.40;99.60
44447;DHT22;30152;52.066;5.358;2023-03-01T22:15:23;1.60;96.90
44447;DHT22;30152;52.066;5.358;2023-03-01T22:17:48;1.30;99.40
44447;DHT22;30152;52.066;5.358;2023-03-01T22:20:14;1.90;97.40
44447;DHT22;30152;52.066;5.358;2023-03-01T22:22:40;1.60;99.70
